Time;durP1;ratioP1;P1;durP2;ratioP2;P2;SDS_P1;SDS_P2;PMS_P1;PMS_P2;Temp;Humidity;BMP_temperature;BMP_pressure;BME280_temperature;BME280_humidity;BME280_pressure;Samples;Min_cycle;Max_cycle;Signal;HPM_P1;HPM_P2
2022/05/25 00:01:42;;;;;;;;;;;15.50;79.00;;;;;;5035462;28;20037;-74
2022/05/25 00:04:08;;;;;;;;;;;15.50;78.90;;;;;;5027656;28;20016;-74
2022/05/25 00:06:34;;;;;;;;;;;15.50;79.20;;;;;;5040243;28;19963;-74
2022/05/25 00:09:00;;;;;;;;;;;15.50;79.40;;;;;;5015226;28;19913;-74
2022/05/25 00:11:26;;;;;;;;;;;15.40;79.10;;;;;;5010169;28;19924;-74
2022/05/25 00:13:51;;;;;;;;;;;15.40;79.30;;;;;;5014714;28;19972;-74
2022/05/25 00:16:17;;;;;;;;;;;15.40;79.30;;;;;;5007192;28;19914;-74
2022/05/25 00:19:59;;;;;;;;;;;15.40;79.30;;;;;;5045472;28;19948;-74
2022/05/25 00:21:29;;;;;;;;;;;15.40;79.50;;;;;;5045492;28;19919;-74
2022/05/25 00:23:54;;;;;;;;;;;15.30;80.70;;;;;;5048452;28;19925;-74
2022/05/25 00:26:20;;;;;;;;;;;15.30;80.00;;;;;;5048183;28;19969;-74
2022/05/25 00:28:45;;;;;;;;;;;15.30;79.90;;;;;;5026308;28;19921;-74
2022/05/25 00:31:12;;;;;;;;;;;15.30;80.00;;;;;;5047691;28;21433;-74
2022/05/25 00:33:38;;;;;;;;;;;15.30;80.40;;;;;;5061362;28;19919;-74
2022/05/25 00:36:04;;;;;;;;;;;15.20;80.00;;;;;;5068223;28;19916;-74
2022/05/25 00:38:29;;;;;;;;;;;15.20;80.80;;;;;;5056554;28;19920;-74
2022/05/25 00:40:57;;;;;;;;;;;15.20;80.80;;;;;;5030378;28;19915;-74
2022/05/25 00:43:22;;;;;;;;;;;15.20;80.70;;;;;;5051856;28;19916;-74
2022/05/25 00:45:52;;;;;;;;;;;15.20;80.90;;;;;;5067959;28;19951;-74
2022/05/25 00:48:21;;;;;;;;;;;15.10;80.90;;;;;;5065337;28;20011;-74
2022/05/25 00:53:32;;;;;;;;;;;15.10;81.00;;;;;;5052927;28;20265;-74
2022/05/25 00:55:57;;;;;;;;;;;15.00;81.00;;;;;;5063770;28;19928;-74
2022/05/25 00:58:23;;;;;;;;;;;15.00;81.00;;;;;;5045234;28;19920;-74
2022/05/25 01:00:48;;;;;;;;;;;15.00;81.10;;;;;;5066041;28;20342;-74
2022/05/25 01:03:15;;;;;;;;;;;15.00;81.20;;;;;;5065609;28;19916;-74
2022/05/25 01:05:40;;;;;;;;;;;15.00;81.20;;;;;;5067553;28;19974;-74
2022/05/25 01:08:25;;;;;;;;;;;15.00;81.40;;;;;;5062269;28;19913;-73
2022/05/25 01:11:09;;;;;;;;;;;14.90;81.20;;;;;;5027929;28;20384;-74
2022/05/25 01:13:43;;;;;;;;;;;14.90;81.40;;;;;;5047719;28;19917;-74
2022/05/25 01:16:18;;;;;;;;;;;14.90;81.40;;;;;;5048787;28;19912;-73
2022/05/25 01:18:49;;;;;;;;;;;14.90;81.40;;;;;;5064500;28;19917;-74
2022/05/25 01:21:23;;;;;;;;;;;14.90;81.50;;;;;;5066484;28;19982;-74
2022/05/25 01:23:51;;;;;;;;;;;14.90;81.70;;;;;;5064778;28;19913;-74
2022/05/25 01:26:20;;;;;;;;;;;14.90;81.50;;;;;;5066319;28;19955;-74
2022/05/25 01:28:59;;;;;;;;;;;14.80;81.60;;;;;;5047489;28;19917;-74
2022/05/25 01:31:30;;;;;;;;;;;14.80;81.50;;;;;;5045704;28;19961;-73
2022/05/25 01:34:01;;;;;;;;;;;14.80;81.60;;;;;;5047581;28;20445;-74
2022/05/25 01:36:31;;;;;;;;;;;14.80;81.90;;;;;;5043378;28;19913;-74
2022/05/25 01:39:01;;;;;;;;;;;14.80;81.80;;;;;;5034229;28;20015;-74
2022/05/25 01:41:39;;;;;;;;;;;14.80;81.80;;;;;;5020597;28;20404;-74
2022/05/25 01:44:06;;;;;;;;;;;14.70;81.90;;;;;;5038974;28;19917;-74
2022/05/25 01:46:34;;;;;;;;;;;14.80;81.90;;;;;;5038373;28;19924;-74
2022/05/25 01:49:03;;;;;;;;;;;14.80;82.00;;;;;;5026998;28;19909;-74
2022/05/25 01:51:34;;;;;;;;;;;14.70;81.90;;;;;;5032041;28;19924;-74
2022/05/25 01:54:01;;;;;;;;;;;14.70;82.10;;;;;;5029468;28;19920;-74
2022/05/25 01:56:28;;;;;;;;;;;14.70;82.20;;;;;;5036544;28;19948;-74
2022/05/25 01:58:56;;;;;;;;;;;14.70;82.20;;;;;;5046590;28;20753;-74
2022/05/25 02:01:21;;;;;;;;;;;14.70;82.30;;;;;;5044523;28;20043;-74
2022/05/25 02:06:50;;;;;;;;;;;14.60;82.40;;;;;;5043888;28;19924;-74
2022/05/25 02:09:34;;;;;;;;;;;14.60;82.40;;;;;;5025223;28;19923;-74
2022/05/25 02:12:18;;;;;;;;;;;14.60;82.60;;;;;;5035657;28;19920;-74
2022/05/25 02:14:49;;;;;;;;;;;14.50;82.50;;;;;;5009439;28;20051;-74
2022/05/25 02:17:29;;;;;;;;;;;14.60;82.70;;;;;;5020828;28;20493;-74
2022/05/25 02:20:00;;;;;;;;;;;14.50;82.60;;;;;;5045486;28;19963;-74
2022/05/25 02:22:30;;;;;;;;;;;14.50;82.60;;;;;;5036229;28;20055;-74
2022/05/25 02:25:22;;;;;;;;;;;14.50;82.70;;;;;;5041976;28;19913;-74
2022/05/25 02:27:55;;;;;;;;;;;14.50;82.80;;;;;;5019733;28;20286;-74
2022/05/25 02:30:21;;;;;;;;;;;14.50;82.70;;;;;;5046451;28;19909;-74
2022/05/25 02:32:51;;;;;;;;;;;14.50;82.80;;;;;;5055257;28;19913;-76
2022/05/25 02:35:17;;;;;;;;;;;14.50;82.80;;;;;;5065337;28;19913;-76
2022/05/25 02:37:43;;;;;;;;;;;14.50;82.70;;;;;;5060984;28;20403;-76
2022/05/25 02:40:10;;;;;;;;;;;14.40;82.70;;;;;;5045567;28;19916;-76
2022/05/25 02:42:40;;;;;;;;;;;14.40;82.70;;;;;;5043756;28;19945;-76
2022/05/25 02:45:06;;;;;;;;;;;14.40;83.50;;;;;;5046295;28;19913;-76
2022/05/25 02:47:31;;;;;;;;;;;14.40;83.00;;;;;;5043681;28;19913;-76
2022/05/25 02:49:57;;;;;;;;;;;14.40;82.90;;;;;;5064708;28;19985;-76
2022/05/25 02:52:22;;;;;;;;;;;14.40;83.00;;;;;;5063512;28;19913;-76
2022/05/25 02:54:48;;;;;;;;;;;14.40;83.10;;;;;;5066195;28;20390;-76
2022/05/25 02:57:13;;;;;;;;;;;14.40;83.00;;;;;;5051873;28;19916;-76
2022/05/25 02:59:39;;;;;;;;;;;14.30;82.90;;;;;;5044600;28;20023;-76
2022/05/25 03:02:05;;;;;;;;;;;14.30;83.00;;;;;;5066242;28;19912;-77
2022/05/25 03:04:30;;;;;;;;;;;14.30;83.10;;;;;;5055942;28;19921;-76
2022/05/25 03:06:56;;;;;;;;;;;14.30;83.00;;;;;;5066065;28;19991;-76
2022/05/25 03:09:22;;;;;;;;;;;14.30;83.10;;;;;;5048890;28;19923;-76
2022/05/25 03:11:47;;;;;;;;;;;14.20;83.10;;;;;;5046042;28;20019;-76
2022/05/25 03:14:13;;;;;;;;;;;14.20;83.20;;;;;;5059723;28;19916;-76
2022/05/25 03:16:38;;;;;;;;;;;14.30;83.30;;;;;;5065532;28;19952;-76
2022/05/25 03:19:04;;;;;;;;;;;14.20;83.20;;;;;;5063466;28;20546;-77
2022/05/25 03:21:29;;;;;;;;;;;14.20;83.40;;;;;;5065539;28;19908;-76
2022/05/25 03:23:55;;;;;;;;;;;14.20;83.30;;;;;;5061782;28;19916;-76
2022/05/25 03:26:20;;;;;;;;;;;14.20;83.20;;;;;;5065767;28;20003;-76
2022/05/25 03:28:46;;;;;;;;;;;14.20;83.30;;;;;;5043872;28;19921;-76
2022/05/25 03:31:12;;;;;;;;;;;14.20;83.30;;;;;;5045532;28;20023;-76
2022/05/25 03:33:37;;;;;;;;;;;14.20;83.20;;;;;;5041814;28;19913;-76
2022/05/25 03:36:03;;;;;;;;;;;14.20;83.40;;;;;;5021846;28;19956;-76
2022/05/25 03:38:28;;;;;;;;;;;14.20;83.40;;;;;;5032275;28;20625;-76
2022/05/25 03:40:54;;;;;;;;;;;14.20;83.30;;;;;;5033279;28;19917;-76
2022/05/25 03:43:20;;;;;;;;;;;14.10;83.30;;;;;;5045475;28;20617;-76
2022/05/25 03:45:46;;;;;;;;;;;14.10;83.40;;;;;;5042650;28;19913;-76
2022/05/25 03:48:12;;;;;;;;;;;14.10;83.40;;;;;;5045719;28;19917;-76
2022/05/25 03:50:41;;;;;;;;;;;14.10;83.50;;;;;;5041953;28;20002;-76
2022/05/25 03:53:07;;;;;;;;;;;14.10;83.40;;;;;;5035681;28;19920;-76
2022/05/25 03:55:33;;;;;;;;;;;14.10;83.50;;;;;;5030471;28;20068;-76
2022/05/25 03:57:59;;;;;;;;;;;14.10;83.50;;;;;;5025328;28;20678;-76
2022/05/25 04:00:24;;;;;;;;;;;14.10;83.50;;;;;;5029418;28;19917;-76
2022/05/25 04:02:50;;;;;;;;;;;14.10;83.50;;;;;;5048911;28;19916;-76
2022/05/25 04:05:16;;;;;;;;;;;14.10;83.40;;;;;;5046131;28;19947;-76
2022/05/25 04:07:45;;;;;;;;;;;14.10;83.60;;;;;;5047172;28;19912;-76
2022/05/25 04:10:13;;;;;;;;;;;14.10;83.60;;;;;;5028084;28;19975;-76
2022/05/25 04:12:40;;;;;;;;;;;14.10;83.60;;;;;;5040626;28;19916;-76
2022/05/25 04:15:06;;;;;;;;;;;14.10;83.60;;;;;;5010760;28;19948;-76
2022/05/25 04:17:32;;;;;;;;;;;14.10;83.70;;;;;;5042033;28;19913;-76
2022/05/25 04:19:57;;;;;;;;;;;14.00;83.60;;;;;;5048547;28;20451;-76
2022/05/25 04:22:23;;;;;;;;;;;14.00;83.50;;;;;;5038531;28;19909;-76
2022/05/25 04:24:49;;;;;;;;;;;14.00;83.60;;;;;;5048709;28;19917;-76
2022/05/25 04:27:14;;;;;;;;;;;14.00;83.60;;;;;;5027593;28;20019;-76
2022/05/25 04:29:40;;;;;;;;;;;14.00;83.60;;;;;;5048378;28;19920;-76
2022/05/25 04:32:06;;;;;;;;;;;14.00;83.50;;;;;;5040860;28;20353;-76
2022/05/25 04:34:32;;;;;;;;;;;14.00;83.40;;;;;;5010500;28;20308;-76
2022/05/25 04:37:48;;;;;;;;;;;14.00;83.20;;;;;;5028579;28;20003;-76
2022/05/25 04:39:43;;;;;;;;;;;14.00;83.30;;;;;;5028386;28;19917;-76
2022/05/25 04:42:08;;;;;;;;;;;14.00;83.60;;;;;;5032587;28;19947;-76
2022/05/25 04:44:34;;;;;;;;;;;14.00;83.50;;;;;;5048465;28;19947;-76
2022/05/25 04:46:59;;;;;;;;;;;14.00;83.60;;;;;;5045655;28;19916;-76
2022/05/25 04:49:26;;;;;;;;;;;14.00;83.60;;;;;;5048142;28;19912;-76
2022/05/25 04:51:52;;;;;;;;;;;13.90;83.40;;;;;;5044944;28;19912;-76
2022/05/25 04:54:17;;;;;;;;;;;13.90;83.60;;;;;;5047337;28;19919;-76
2022/05/25 04:59:26;;;;;;;;;;;14.00;83.40;;;;;;5042321;28;19927;-76
2022/05/25 05:01:52;;;;;;;;;;;14.00;83.60;;;;;;5047692;28;19913;-76
2022/05/25 05:04:17;;;;;;;;;;;14.00;83.50;;;;;;5044860;28;20351;-76
2022/05/25 05:06:44;;;;;;;;;;;14.00;83.60;;;;;;5047657;28;19951;-76
2022/05/25 05:09:10;;;;;;;;;;;13.90;83.70;;;;;;5020113;28;19913;-76
2022/05/25 05:11:37;;;;;;;;;;;14.00;83.60;;;;;;5027023;28;19920;-76
2022/05/25 05:14:03;;;;;;;;;;;14.00;83.70;;;;;;5040128;28;19924;-76
2022/05/25 05:16:28;;;;;;;;;;;14.00;83.60;;;;;;5047792;28;19931;-76
2022/05/25 05:18:53;;;;;;;;;;;13.90;83.00;;;;;;5044590;28;20565;-76
2022/05/25 05:21:19;;;;;;;;;;;14.00;83.80;;;;;;5047183;28;19987;-76
2022/05/25 05:23:45;;;;;;;;;;;14.00;83.60;;;;;;5039664;28;19917;-76
2022/05/25 05:26:11;;;;;;;;;;;14.00;83.80;;;;;;5047118;28;20323;-76
2022/05/25 05:28:37;;;;;;;;;;;14.00;83.60;;;;;;5043416;28;19924;-76
2022/05/25 05:31:03;;;;;;;;;;;14.00;83.40;;;;;;5037614;28;20716;-76
2022/05/25 05:33:29;;;;;;;;;;;14.00;83.50;;;;;;5026173;28;19913;-76
2022/05/25 05:35:57;;;;;;;;;;;14.00;83.30;;;;;;5047125;28;19988;-76
2022/05/25 05:38:23;;;;;;;;;;;14.00;83.40;;;;;;5039075;28;19917;-76
2022/05/25 05:40:48;;;;;;;;;;;14.00;83.40;;;;;;5042847;28;20529;-76
2022/05/25 05:43:14;;;;;;;;;;;14.10;83.40;;;;;;5047028;28;19916;-76
2022/05/25 05:45:41;;;;;;;;;;;14.10;83.40;;;;;;5043941;28;19917;-76
2022/05/25 05:48:09;;;;;;;;;;;14.00;84.00;;;;;;5046683;28;19935;-76
2022/05/25 05:50:37;;;;;;;;;;;14.00;83.40;;;;;;5043989;28;19952;-76
2022/05/25 05:53:03;;;;;;;;;;;14.10;83.70;;;;;;5036739;28;19916;-76
2022/05/25 05:55:29;;;;;;;;;;;14.10;83.40;;;;;;5031186;28;19917;-76
2022/05/25 05:57:55;;;;;;;;;;;14.10;83.30;;;;;;5026629;28;19913;-76
2022/05/25 06:00:20;;;;;;;;;;;14.10;83.80;;;;;;5031656;28;19921;-76
2022/05/25 06:02:46;;;;;;;;;;;14.10;83.30;;;;;;5046333;28;19909;-76
2022/05/25 06:05:12;;;;;;;;;;;14.10;83.30;;;;;;5043684;28;19962;-76
2022/05/25 06:07:37;;;;;;;;;;;14.10;83.10;;;;;;5044820;28;19956;-75
2022/05/25 06:10:03;;;;;;;;;;;14.10;83.20;;;;;;5019948;28;20012;-76
2022/05/25 06:12:32;;;;;;;;;;;14.10;83.00;;;;;;5042026;28;19966;-76
2022/05/25 06:14:58;;;;;;;;;;;14.10;83.70;;;;;;5046434;28;19948;-76
2022/05/25 06:20:08;;;;;;;;;;;14.10;83.10;;;;;;5020668;28;19923;-76
2022/05/25 06:22:33;;;;;;;;;;;14.10;82.90;;;;;;5039732;28;20007;-76
2022/05/25 06:24:59;;;;;;;;;;;14.10;82.90;;;;;;5046024;28;20274;-76
2022/05/25 06:27:25;;;;;;;;;;;14.10;82.90;;;;;;5039579;28;19921;-76
2022/05/25 06:29:51;;;;;;;;;;;14.20;82.80;;;;;;5025383;28;19913;-76
2022/05/25 06:32:20;;;;;;;;;;;14.20;82.80;;;;;;5036989;28;19970;-76
2022/05/25 06:34:47;;;;;;;;;;;14.20;82.70;;;;;;5045822;28;20383;-76
2022/05/25 06:37:18;;;;;;;;;;;14.20;82.70;;;;;;5035437;28;20062;-76
2022/05/25 06:39:43;;;;;;;;;;;14.20;82.80;;;;;;5026178;28;19939;-76
2022/05/25 06:42:09;;;;;;;;;;;14.20;82.50;;;;;;5033227;28;20546;-76
2022/05/25 06:44:34;;;;;;;;;;;14.20;83.10;;;;;;5046297;28;19917;-75
2022/05/25 06:47:00;;;;;;;;;;;14.20;82.70;;;;;;5043395;28;19928;-76
2022/05/25 06:49:25;;;;;;;;;;;14.20;82.50;;;;;;5045928;28;19909;-76
2022/05/25 06:51:51;;;;;;;;;;;14.20;82.30;;;;;;5042900;28;19916;-76
2022/05/25 06:54:17;;;;;;;;;;;14.20;82.50;;;;;;5025923;28;19919;-76
2022/05/25 06:56:43;;;;;;;;;;;14.20;82.30;;;;;;5015414;28;19921;-76
2022/05/25 06:59:09;;;;;;;;;;;14.30;82.30;;;;;;5045965;28;19921;-76
2022/05/25 07:01:35;;;;;;;;;;;14.30;82.20;;;;;;5045641;28;19921;-76
2022/05/25 07:04:01;;;;;;;;;;;14.30;82.10;;;;;;5043007;28;19912;-76
2022/05/25 07:06:26;;;;;;;;;;;14.30;82.00;;;;;;5024315;28;19971;-76
2022/05/25 07:08:53;;;;;;;;;;;14.40;81.90;;;;;;5030420;28;19968;-76
2022/05/25 07:11:19;;;;;;;;;;;14.30;81.80;;;;;;5026268;28;20333;-76
2022/05/25 07:13:45;;;;;;;;;;;14.30;81.60;;;;;;5033159;28;20338;-76
2022/05/25 07:16:13;;;;;;;;;;;14.30;81.70;;;;;;5045405;28;19947;-76
2022/05/25 07:18:38;;;;;;;;;;;14.40;81.60;;;;;;5042421;28;19919;-76
2022/05/25 07:21:08;;;;;;;;;;;14.40;81.40;;;;;;5044581;28;19920;-76
2022/05/25 07:23:34;;;;;;;;;;;14.40;81.70;;;;;;5041039;28;19916;-75
2022/05/25 07:26:00;;;;;;;;;;;14.40;81.60;;;;;;5007917;28;19925;-76
2022/05/25 07:28:25;;;;;;;;;;;14.40;81.40;;;;;;5023760;28;19928;-76
2022/05/25 07:30:53;;;;;;;;;;;14.50;80.90;;;;;;5026061;28;19913;-75
2022/05/25 07:33:18;;;;;;;;;;;14.40;80.80;;;;;;5043514;28;19917;-76
2022/05/25 07:35:44;;;;;;;;;;;14.40;80.80;;;;;;5046645;28;19912;-76
2022/05/25 07:38:10;;;;;;;;;;;14.50;80.90;;;;;;5043191;28;19913;-76
2022/05/25 07:40:38;;;;;;;;;;;14.50;80.60;;;;;;5027427;28;19917;-76
2022/05/25 07:43:08;;;;;;;;;;;14.50;80.70;;;;;;5029591;28;19925;-76
2022/05/25 07:45:35;;;;;;;;;;;14.50;80.50;;;;;;5044422;28;19929;-76
2022/05/25 07:48:00;;;;;;;;;;;14.50;80.40;;;;;;5049194;28;19931;-76
2022/05/25 07:50:26;;;;;;;;;;;14.60;80.30;;;;;;5046569;28;20696;-76
2022/05/25 07:52:53;;;;;;;;;;;14.60;80.40;;;;;;5041055;28;20330;-76
2022/05/25 07:55:19;;;;;;;;;;;14.60;80.20;;;;;;5032435;28;19916;-76
2022/05/25 07:57:44;;;;;;;;;;;14.60;80.00;;;;;;5030530;28;20643;-76
2022/05/25 08:00:11;;;;;;;;;;;14.60;79.70;;;;;;5036233;28;19921;-76
2022/05/25 08:08:08;;;;;;;;;;;14.70;79.90;;;;;;5036371;28;19964;-76
2022/05/25 08:10:34;;;;;;;;;;;14.70;79.70;;;;;;5034610;28;20274;-76
2022/05/25 08:13:00;;;;;;;;;;;14.70;79.40;;;;;;5049054;28;19913;-76
2022/05/25 08:15:26;;;;;;;;;;;14.70;79.50;;;;;;5045907;28;19920;-76
2022/05/25 08:17:52;;;;;;;;;;;14.80;79.50;;;;;;5042040;28;20724;-76
2022/05/25 08:20:19;;;;;;;;;;;14.90;79.50;;;;;;5029188;28;19927;-76
2022/05/25 08:22:44;;;;;;;;;;;14.90;79.00;;;;;;5048595;28;19959;-76
2022/05/25 08:25:11;;;;;;;;;;;14.90;79.30;;;;;;5041471;28;20117;-76
2022/05/25 08:27:39;;;;;;;;;;;14.90;79.10;;;;;;5058038;28;20002;-76
2022/05/25 08:30:22;;;;;;;;;;;14.90;78.90;;;;;;5068575;28;19924;-76
2022/05/25 08:32:48;;;;;;;;;;;14.90;78.70;;;;;;5032028;28;19917;-75
2022/05/25 08:35:13;;;;;;;;;;;14.90;78.40;;;;;;5048089;28;20412;-76
2022/05/25 08:37:41;;;;;;;;;;;14.90;78.40;;;;;;5045866;28;19917;-76
2022/05/25 08:40:07;;;;;;;;;;;14.90;78.70;;;;;;5048384;28;19962;-75
2022/05/25 08:42:36;;;;;;;;;;;15.00;78.50;;;;;;5045814;28;20079;-76
2022/05/25 08:45:02;;;;;;;;;;;15.00;78.50;;;;;;5048164;28;19960;-76
2022/05/25 08:47:28;;;;;;;;;;;15.10;78.40;;;;;;5042435;28;19909;-76
2022/05/25 08:49:55;;;;;;;;;;;15.10;78.30;;;;;;5048022;28;19923;-76
2022/05/25 08:52:23;;;;;;;;;;;15.10;78.10;;;;;;5045830;28;19913;-76
2022/05/25 08:54:49;;;;;;;;;;;15.10;78.10;;;;;;5047758;28;19912;-76
2022/05/25 08:57:23;;;;;;;;;;;15.20;78.00;;;;;;5039741;28;19967;-76
2022/05/25 09:00:04;;;;;;;;;;;15.20;77.40;;;;;;5047685;28;19920;-76
2022/05/25 09:02:36;;;;;;;;;;;15.30;77.50;;;;;;5045113;28;19912;-75
2022/05/25 09:05:02;;;;;;;;;;;15.30;77.30;;;;;;5047681;28;19913;-76
2022/05/25 09:07:48;;;;;;;;;;;15.30;77.00;;;;;;5044692;28;19913;-76
2022/05/25 09:10:15;;;;;;;;;;;15.30;77.00;;;;;;5046844;28;19917;-75
2022/05/25 09:12:40;;;;;;;;;;;15.40;77.20;;;;;;5048859;28;20623;-76
2022/05/25 09:15:09;;;;;;;;;;;15.40;76.50;;;;;;5067181;28;19916;-75
2022/05/25 09:17:53;;;;;;;;;;;15.50;76.80;;;;;;5050846;28;19917;-76
2022/05/25 09:20:21;;;;;;;;;;;15.60;76.60;;;;;;5055869;28;19965;-76
2022/05/25 09:22:47;;;;;;;;;;;15.60;76.00;;;;;;5059738;28;20732;-76
2022/05/25 09:25:13;;;;;;;;;;;15.60;76.40;;;;;;5064690;28;20007;-76
2022/05/25 09:27:41;;;;;;;;;;;15.60;76.20;;;;;;5062478;28;19955;-76
2022/05/25 09:30:07;;;;;;;;;;;15.70;75.20;;;;;;5047048;28;19962;-76
2022/05/25 09:32:33;;;;;;;;;;;15.70;75.50;;;;;;5046980;28;19912;-76
2022/05/25 09:34:58;;;;;;;;;;;15.90;75.50;;;;;;5044488;28;20354;-76
2022/05/25 09:37:32;;;;;;;;;;;15.90;75.30;;;;;;5046868;28;19920;-76
2022/05/25 09:40:00;;;;;;;;;;;15.90;75.20;;;;;;5042369;28;20039;-76
2022/05/25 09:42:31;;;;;;;;;;;15.90;75.70;;;;;;5046721;28;19916;-75
2022/05/25 09:44:58;;;;;;;;;;;16.00;75.40;;;;;;5044399;28;19920;-76
2022/05/25 09:47:27;;;;;;;;;;;16.10;75.40;;;;;;5046542;28;20312;-75
2022/05/25 09:49:55;;;;;;;;;;;16.10;75.30;;;;;;5044902;28;19913;-76
2022/05/25 09:52:22;;;;;;;;;;;16.20;75.00;;;;;;5042689;28;19922;-76
2022/05/25 09:54:52;;;;;;;;;;;16.30;74.90;;;;;;5035989;28;20427;-75
2022/05/25 09:57:24;;;;;;;;;;;16.30;74.50;;;;;;5046028;28;19916;-76
2022/05/25 09:59:56;;;;;;;;;;;16.40;74.60;;;;;;5043509;28;20425;-76
2022/05/25 10:02:48;;;;;;;;;;;16.40;74.10;;;;;;5046330;28;19920;-76
2022/05/25 10:05:14;;;;;;;;;;;16.40;73.90;;;;;;5051202;28;19912;-76
2022/05/25 10:07:48;;;;;;;;;;;16.50;73.90;;;;;;5064084;28;19917;-76
2022/05/25 10:10:13;;;;;;;;;;;16.50;74.20;;;;;;5043566;28;19913;-75
2022/05/25 10:12:39;;;;;;;;;;;16.60;73.80;;;;;;5049272;28;19944;-76
2022/05/25 10:15:05;;;;;;;;;;;16.60;73.50;;;;;;5059937;28;20049;-76
2022/05/25 10:17:35;;;;;;;;;;;16.70;73.00;;;;;;5028682;28;20000;-76
2022/05/25 10:20:01;;;;;;;;;;;16.80;73.00;;;;;;5042319;28;20011;-76
2022/05/25 10:22:31;;;;;;;;;;;16.80;73.30;;;;;;5045032;28;19939;-76
2022/05/25 10:25:12;;;;;;;;;;;16.80;72.80;;;;;;5042780;28;20528;-76
2022/05/25 10:27:39;;;;;;;;;;;16.90;73.10;;;;;;5055670;28;19921;-76
2022/05/25 10:38:47;;;;;;;;;;;17.30;72.80;;;;;;5029514;28;19924;-73
2022/05/25 10:44:04;;;;;;;;;;;17.50;72.50;;;;;;5065333;28;19923;-73
2022/05/25 10:46:30;;;;;;;;;;;17.50;72.20;;;;;;5062035;28;19922;-73
2022/05/25 10:49:00;;;;;;;;;;;17.60;71.70;;;;;;5065098;28;19913;-74
2022/05/25 10:51:32;;;;;;;;;;;17.70;72.70;;;;;;5062663;28;19916;-74
2022/05/25 10:56:58;;;;;;;;;;;17.80;72.30;;;;;;5052054;28;19976;-73
2022/05/25 10:59:32;;;;;;;;;;;18.00;72.70;;;;;;5047135;28;19916;-74
2022/05/25 11:02:01;;;;;;;;;;;18.00;72.00;;;;;;5062635;28;20446;-73
2022/05/25 11:04:39;;;;;;;;;;;18.20;71.40;;;;;;5065308;28;19917;-74
2022/05/25 11:07:14;;;;;;;;;;;18.40;70.90;;;;;;5062483;28;19916;-74
2022/05/25 11:09:42;;;;;;;;;;;18.40;70.80;;;;;;5043710;28;20412;-73
2022/05/25 11:12:23;;;;;;;;;;;18.40;70.30;;;;;;5052706;28;20074;-73
2022/05/25 11:15:07;;;;;;;;;;;18.40;70.10;;;;;;5029114;28;19924;-73
2022/05/25 11:17:41;;;;;;;;;;;18.50;70.40;;;;;;5042118;28;19919;-73
2022/05/25 11:20:07;;;;;;;;;;;18.60;69.80;;;;;;5068648;28;19920;-73
2022/05/25 11:22:32;;;;;;;;;;;18.80;69.90;;;;;;5066672;28;19920;-72
2022/05/25 11:25:16;;;;;;;;;;;18.90;69.10;;;;;;5068715;28;20448;-73
2022/05/25 11:27:51;;;;;;;;;;;19.00;68.90;;;;;;5055494;28;20079;-73
2022/05/25 11:30:22;;;;;;;;;;;18.90;69.10;;;;;;5048953;28;19974;-73
2022/05/25 11:32:56;;;;;;;;;;;18.90;69.30;;;;;;5046394;28;19916;-74
2022/05/25 11:35:22;;;;;;;;;;;18.90;69.00;;;;;;5048867;28;20434;-73
2022/05/25 11:37:50;;;;;;;;;;;19.00;68.80;;;;;;5046334;28;19956;-73
2022/05/25 11:40:25;;;;;;;;;;;19.10;68.50;;;;;;5032672;28;20609;-74
2022/05/25 11:42:50;;;;;;;;;;;19.20;68.60;;;;;;5027766;28;20278;-73
2022/05/25 11:45:22;;;;;;;;;;;19.20;68.80;;;;;;5048044;28;19912;-72
2022/05/25 11:47:56;;;;;;;;;;;19.30;68.10;;;;;;5047487;28;19925;-73
2022/05/25 11:50:27;;;;;;;;;;;19.30;69.60;;;;;;5028232;28;19921;-73
2022/05/25 11:52:53;;;;;;;;;;;19.20;68.10;;;;;;5026941;28;19913;-74
2022/05/25 11:55:31;;;;;;;;;;;19.20;69.00;;;;;;5044185;28;19924;-73
2022/05/25 11:58:02;;;;;;;;;;;19.30;70.00;;;;;;5047678;28;19913;-73
2022/05/25 12:00:31;;;;;;;;;;;19.40;68.80;;;;;;5045384;28;19921;-73
2022/05/25 12:03:13;;;;;;;;;;;19.40;68.90;;;;;;5048853;28;19921;-73
2022/05/25 12:05:53;;;;;;;;;;;19.50;68.30;;;;;;5035637;28;19955;-73
2022/05/25 12:08:22;;;;;;;;;;;19.50;69.70;;;;;;5023676;28;19917;-73
2022/05/25 12:11:07;;;;;;;;;;;19.70;69.50;;;;;;5043607;28;19998;-73
2022/05/25 12:13:38;;;;;;;;;;;19.70;70.10;;;;;;5047502;28;19963;-73
2022/05/25 12:16:19;;;;;;;;;;;19.80;69.60;;;;;;5014521;28;20008;-73
2022/05/25 12:18:45;;;;;;;;;;;19.90;67.50;;;;;;5008594;28;19914;-73
2022/05/25 12:21:16;;;;;;;;;;;20.00;69.60;;;;;;5039452;28;19920;-73
2022/05/25 12:24:08;;;;;;;;;;;20.10;69.60;;;;;;5043395;28;19913;-73
2022/05/25 12:26:36;;;;;;;;;;;20.00;68.80;;;;;;5040687;28;20411;-73
2022/05/25 12:29:05;;;;;;;;;;;20.00;69.00;;;;;;5067887;28;20324;-73
2022/05/25 12:31:32;;;;;;;;;;;20.10;70.00;;;;;;5063667;28;19912;-73
2022/05/25 12:33:57;;;;;;;;;;;20.20;69.10;;;;;;5067648;28;19916;-73
2022/05/25 12:36:23;;;;;;;;;;;20.20;70.00;;;;;;5056978;28;19943;-73
2022/05/25 12:38:48;;;;;;;;;;;20.40;68.80;;;;;;5055997;28;19927;-73
2022/05/25 12:41:23;;;;;;;;;;;20.40;69.60;;;;;;5050211;28;19916;-72
2022/05/25 12:43:59;;;;;;;;;;;20.50;68.40;;;;;;5067375;28;19916;-73
2022/05/25 12:49:32;;;;;;;;;;;20.60;68.50;;;;;;5067318;28;19923;-73
2022/05/25 12:51:58;;;;;;;;;;;20.70;67.50;;;;;;5059351;28;19923;-73
2022/05/25 12:54:25;;;;;;;;;;;20.70;68.00;;;;;;5027488;28;19917;-73
2022/05/25 12:56:51;;;;;;;;;;;20.70;67.00;;;;;;5046938;28;19912;-73
2022/05/25 12:59:25;;;;;;;;;;;20.60;67.90;;;;;;5067267;28;19928;-73
2022/05/25 13:02:06;;;;;;;;;;;20.60;67.40;;;;;;5056323;28;19913;-74
2022/05/25 13:04:42;;;;;;;;;;;20.60;66.50;;;;;;5047161;28;20411;-73
2022/05/25 13:07:28;;;;;;;;;;;20.60;66.50;;;;;;5034014;28;20278;-73
2022/05/25 13:09:54;;;;;;;;;;;20.80;67.50;;;;;;5031609;28;19913;-73
2022/05/25 13:12:38;;;;;;;;;;;20.90;67.40;;;;;;5050297;28;20350;-73
2022/05/25 13:15:05;;;;;;;;;;;21.00;67.00;;;;;;5058931;28;20257;-73
2022/05/25 13:18:00;;;;;;;;;;;20.90;65.50;;;;;;5060626;28;19912;-73
2022/05/25 13:20:29;;;;;;;;;;;20.90;64.80;;;;;;5044608;28;19974;-73
2022/05/25 13:22:55;;;;;;;;;;;20.90;65.60;;;;;;5062633;28;19916;-73
2022/05/25 13:25:30;;;;;;;;;;;20.90;65.10;;;;;;5066370;28;19912;-73
2022/05/25 13:28:14;;;;;;;;;;;20.80;66.20;;;;;;5055747;28;19978;-73
2022/05/25 13:30:39;;;;;;;;;;;20.80;65.50;;;;;;5066365;28;19913;-72
2022/05/25 13:33:20;;;;;;;;;;;20.80;65.40;;;;;;5062904;28;19912;-72
2022/05/25 13:35:47;;;;;;;;;;;20.80;65.30;;;;;;5066326;28;19920;-73
2022/05/25 13:38:22;;;;;;;;;;;20.80;62.80;;;;;;5054375;28;19923;-73
2022/05/25 13:40:51;;;;;;;;;;;20.70;64.60;;;;;;5045746;28;20613;-72
2022/05/25 13:43:19;;;;;;;;;;;20.80;65.30;;;;;;5049570;28;19919;-72
2022/05/25 13:45:45;;;;;;;;;;;20.80;65.10;;;;;;5066174;28;19986;-72
2022/05/25 13:48:13;;;;;;;;;;;20.80;64.10;;;;;;5063779;28;19912;-73
2022/05/25 13:50:39;;;;;;;;;;;20.90;64.40;;;;;;5066591;28;20357;-73
2022/05/25 13:53:08;;;;;;;;;;;21.00;62.80;;;;;;5053132;28;19916;-73
2022/05/25 13:55:35;;;;;;;;;;;21.00;65.00;;;;;;5062747;28;20400;-72
2022/05/25 13:58:06;;;;;;;;;;;21.00;63.40;;;;;;5056300;28;19912;-73
2022/05/25 14:00:36;;;;;;;;;;;20.90;63.90;;;;;;5062038;28;20361;-73
2022/05/25 14:03:04;;;;;;;;;;;20.80;63.70;;;;;;5064265;28;19912;-73
2022/05/25 14:05:34;;;;;;;;;;;20.80;63.90;;;;;;5064453;28;20359;-73
2022/05/25 14:10:54;;;;;;;;;;;20.70;62.60;;;;;;5060882;28;19920;-73
2022/05/25 14:11:14;;;;;;;;;;;20.70;63.40;;;;;;5008714;28;19996;-73
2022/05/25 14:13:41;;;;;;;;;;;20.70;62.30;;;;;;5045745;28;19912;-73
2022/05/25 14:16:13;;;;;;;;;;;20.80;64.50;;;;;;5065925;28;19913;-73
2022/05/25 14:18:42;;;;;;;;;;;21.00;64.50;;;;;;5061661;28;19912;-73
2022/05/25 14:21:10;;;;;;;;;;;21.00;62.40;;;;;;5057004;28;20265;-73
2022/05/25 14:23:35;;;;;;;;;;;21.00;62.30;;;;;;5061407;28;19912;-74
2022/05/25 14:26:02;;;;;;;;;;;21.00;62.50;;;;;;5063135;28;19924;-73
2022/05/25 14:28:31;;;;;;;;;;;21.10;63.30;;;;;;5065735;28;20269;-72
2022/05/25 14:30:57;;;;;;;;;;;21.10;61.80;;;;;;5057769;28;20305;-73
2022/05/25 14:33:23;;;;;;;;;;;21.20;60.40;;;;;;5065766;28;19914;-73
2022/05/25 14:35:54;;;;;;;;;;;21.30;61.40;;;;;;5055675;28;20027;-73
2022/05/25 14:38:20;;;;;;;;;;;21.30;62.10;;;;;;5038167;28;19956;-73
2022/05/25 14:40:48;;;;;;;;;;;21.30;60.10;;;;;;5053038;28;20322;-73
2022/05/25 14:43:13;;;;;;;;;;;21.30;61.10;;;;;;5065759;28;19908;-73
2022/05/25 14:45:39;;;;;;;;;;;21.40;61.30;;;;;;5054212;28;20422;-73
2022/05/25 14:48:08;;;;;;;;;;;21.50;61.40;;;;;;5065503;28;19920;-73
2022/05/25 14:50:34;;;;;;;;;;;21.50;60.20;;;;;;5063223;28;20876;-73
2022/05/25 14:53:12;;;;;;;;;;;21.60;60.90;;;;;;5037102;28;19913;-73
2022/05/25 14:55:46;;;;;;;;;;;21.70;61.10;;;;;;5042440;28;19980;-73
2022/05/25 14:58:17;;;;;;;;;;;21.70;60.40;;;;;;5065342;28;19912;-73
2022/05/25 15:01:00;;;;;;;;;;;21.70;61.10;;;;;;5062545;28;19920;-73